createdAt,value
2022-09-09T00:00:42.715Z,14.94
2022-09-09T00:03:12.928Z,14.93
2022-09-09T00:05:44.849Z,14.90
2022-09-09T00:08:15.995Z,14.86
2022-09-09T00:10:42.254Z,14.83
2022-09-09T00:13:16.544Z,14.78
2022-09-09T00:15:47.674Z,14.77
2022-09-09T00:18:18.534Z,14.74
2022-09-09T00:20:48.499Z,14.71
2022-09-09T00:23:18.768Z,14.68
2022-09-09T00:25:52.347Z,14.65
2022-09-09T00:28:21.305Z,14.63
2022-09-09T00:30:48.060Z,14.58
2022-09-09T00:33:15.635Z,14.55
2022-09-09T00:35:44.895Z,14.55
2022-09-09T00:38:13.619Z,14.53
2022-09-09T00:40:46.223Z,14.49
2022-09-09T00:43:22.132Z,14.44
2022-09-09T00:46:02.217Z,14.40
2022-09-09T00:48:32.761Z,14.40
2022-09-09T00:51:03.605Z,14.38
2022-09-09T00:53:37.022Z,14.35
2022-09-09T00:56:09.475Z,14.31
2022-09-09T00:58:35.938Z,14.32
2022-09-09T01:01:05.691Z,14.30
2022-09-09T01:03:35.055Z,14.29
2022-09-09T01:06:02.944Z,14.31
2022-09-09T01:08:37.603Z,14.33
2022-09-09T01:11:04.307Z,14.33
2022-09-09T01:13:31.397Z,14.33
2022-09-09T01:16:01.747Z,14.34
2022-09-09T01:18:31.933Z,14.34
2022-09-09T01:21:03.928Z,14.33
2022-09-09T01:23:45.122Z,14.35
2022-09-09T01:26:18.976Z,14.34
2022-09-09T01:28:46.398Z,14.35
2022-09-09T01:31:16.072Z,14.33
2022-09-09T01:33:42.410Z,14.31
2022-09-09T01:36:10.735Z,14.31
2022-09-09T01:38:37.493Z,14.30
2022-09-09T01:41:04.052Z,14.28
2022-09-09T01:43:31.643Z,14.28
2022-09-09T01:45:59.981Z,14.27
2022-09-09T01:48:27.003Z,14.24
2022-09-09T01:50:53.283Z,14.24
2022-09-09T01:53:21.142Z,14.23
2022-09-09T01:55:51.789Z,14.24
2022-09-09T01:58:23.092Z,14.20
2022-09-09T02:00:54.603Z,14.23
2022-09-09T02:03:24.590Z,14.21
2022-09-09T02:05:54.375Z,14.23
2022-09-09T02:08:22.122Z,14.23
2022-09-09T02:10:51.223Z,14.23
2022-09-09T02:13:37.721Z,14.23
2022-09-09T02:16:08.130Z,14.21
2022-09-09T02:18:36.435Z,14.22
2022-09-09T02:21:03.878Z,14.20
2022-09-09T02:23:31.048Z,14.21
2022-09-09T02:25:59.069Z,14.20
2022-09-09T02:28:27.186Z,14.19
2022-09-09T02:30:53.615Z,14.17
2022-09-09T02:33:22.912Z,14.14
2022-09-09T02:35:50.898Z,14.11
2022-09-09T02:38:17.478Z,14.09
2022-09-09T02:40:43.770Z,14.07
2022-09-09T02:43:10.022Z,14.05
2022-09-09T02:45:40.512Z,14.06
2022-09-09T02:48:10.260Z,14.09
2022-09-09T02:50:42.773Z,14.09
2022-09-09T02:53:11.212Z,14.09
2022-09-09T02:55:39.447Z,14.10
2022-09-09T02:58:07.194Z,14.13
2022-09-09T03:00:33.815Z,14.15
2022-09-09T03:03:00.106Z,14.16
2022-09-09T03:05:26.375Z,14.18
2022-09-09T03:07:53.969Z,14.21
2022-09-09T03:10:20.247Z,14.24
2022-09-09T03:12:46.512Z,14.25
2022-09-09T03:15:12.879Z,14.27
2022-09-09T03:17:39.161Z,14.29
2022-09-09T03:20:05.671Z,14.30
2022-09-09T03:22:31.951Z,14.33
2022-09-09T03:24:59.575Z,14.34
2022-09-09T03:27:25.850Z,14.37
2022-09-09T03:29:52.141Z,14.39
2022-09-09T03:32:18.746Z,14.39
2022-09-09T03:34:45.029Z,14.40
2022-09-09T03:37:11.310Z,14.41
2022-09-09T03:39:37.613Z,14.40
2022-09-09T03:42:05.503Z,14.39
2022-09-09T03:44:31.794Z,14.41
2022-09-09T03:46:58.074Z,14.41
2022-09-09T03:49:24.330Z,14.43
2022-09-09T03:51:50.603Z,14.43
2022-09-09T03:54:16.868Z,14.43
2022-09-09T03:56:43.155Z,14.43
2022-09-09T03:59:10.779Z,14.43
2022-09-09T04:01:37.071Z,14.46
2022-09-09T04:04:03.384Z,14.46
2022-09-09T04:06:29.663Z,14.48
2022-09-09T04:08:55.943Z,14.49
2022-09-09T04:11:22.228Z,14.50
2022-09-09T04:13:48.721Z,14.52
2022-09-09T04:16:16.364Z,14.53
2022-09-09T04:18:43.304Z,14.55
2022-09-09T04:21:09.836Z,14.57
2022-09-09T04:23:36.118Z,14.60
2022-09-09T04:26:03.344Z,14.61
2022-09-09T04:28:30.587Z,14.62
2022-09-09T04:30:57.228Z,14.63
2022-09-09T04:33:25.570Z,14.64
2022-09-09T04:35:51.855Z,14.66
2022-09-09T04:38:18.218Z,14.67
2022-09-09T04:40:44.496Z,14.67
2022-09-09T04:43:14.277Z,14.68
2022-09-09T04:45:41.048Z,14.67
2022-09-09T04:48:07.474Z,14.67
2022-09-09T04:50:35.105Z,14.66
2022-09-09T04:53:01.562Z,14.64
2022-09-09T04:55:27.839Z,14.62
2022-09-09T04:57:54.106Z,14.60
2022-09-09T05:00:20.399Z,14.56
2022-09-09T05:02:46.903Z,14.53
2022-09-09T05:05:13.197Z,14.51
2022-09-09T05:07:40.814Z,14.50
2022-09-09T05:10:07.315Z,14.49
2022-09-09T05:12:33.607Z,14.48
2022-09-09T05:14:59.863Z,14.47
2022-09-09T05:17:26.156Z,14.46
2022-09-09T05:19:52.423Z,14.46
2022-09-09T05:22:19.552Z,14.44
2022-09-09T05:24:47.146Z,14.43
2022-09-09T05:27:13.420Z,14.45
2022-09-09T05:29:39.774Z,14.46
2022-09-09T05:32:06.033Z,14.45
2022-09-09T05:34:32.308Z,14.45
2022-09-09T05:36:58.579Z,14.44
2022-09-09T05:39:24.857Z,14.45
2022-09-09T05:41:52.467Z,14.45
2022-09-09T05:44:18.731Z,14.48
2022-09-09T05:46:45.038Z,14.48
2022-09-09T05:49:11.401Z,14.51
2022-09-09T05:51:37.676Z,14.51
2022-09-09T05:54:04.130Z,14.53
2022-09-09T05:56:30.403Z,14.56
2022-09-09T05:58:57.994Z,14.57
2022-09-09T06:01:25.243Z,14.61
2022-09-09T06:03:51.876Z,14.64
2022-09-09T06:06:19.243Z,14.69
2022-09-09T06:08:45.954Z,14.74
2022-09-09T06:11:14.282Z,14.81
2022-09-09T06:13:40.543Z,14.86
2022-09-09T06:16:09.021Z,14.93
2022-09-09T06:18:35.332Z,14.97
2022-09-09T06:21:02.319Z,15.04
2022-09-09T06:23:28.677Z,15.09
2022-09-09T06:26:01.779Z,15.13
2022-09-09T06:28:28.034Z,15.18
2022-09-09T06:30:57.857Z,15.23
2022-09-09T06:33:25.562Z,15.27
2022-09-09T06:35:52.122Z,15.33
2022-09-09T06:38:18.434Z,15.35
2022-09-09T06:40:51.247Z,15.37
2022-09-09T06:43:17.621Z,15.41
2022-09-09T06:45:43.899Z,15.45
2022-09-09T06:48:10.191Z,15.50
2022-09-09T06:50:37.809Z,15.53
2022-09-09T06:53:04.092Z,15.58
2022-09-09T06:55:30.367Z,15.63
2022-09-09T06:57:56.631Z,15.70
2022-09-09T07:00:22.890Z,15.73
2022-09-09T07:02:49.171Z,15.78
2022-09-09T07:05:15.569Z,15.83
2022-09-09T07:07:43.192Z,15.84
2022-09-09T07:10:09.685Z,15.93
2022-09-09T07:12:35.972Z,15.97
2022-09-09T07:15:02.261Z,16.05
2022-09-09T07:17:28.592Z,16.12
2022-09-09T07:19:54.868Z,16.20
2022-09-09T07:22:21.185Z,16.27
2022-09-09T07:24:48.813Z,16.30
2022-09-09T07:27:15.098Z,16.39
2022-09-09T07:29:41.375Z,16.43
2022-09-09T07:32:07.650Z,16.49
2022-09-09T07:34:33.937Z,16.57
2022-09-09T07:37:00.187Z,16.58
2022-09-09T07:39:26.482Z,16.63
2022-09-09T07:41:54.122Z,16.71
2022-09-09T07:44:21.803Z,16.82
2022-09-09T07:46:48.115Z,16.86
2022-09-09T07:49:15.084Z,16.86
2022-09-09T07:51:42.687Z,16.85
2022-09-09T07:54:10.011Z,16.84
2022-09-09T07:56:36.679Z,16.81
2022-09-09T07:59:04.727Z,16.79
2022-09-09T08:01:32.146Z,16.79
2022-09-09T08:03:59.878Z,16.78
2022-09-09T08:06:26.418Z,16.77
2022-09-09T08:08:52.745Z,16.76
2022-09-09T08:11:19.703Z,16.79
2022-09-09T08:13:48.081Z,16.87
2022-09-09T08:16:19.583Z,16.95
2022-09-09T08:18:45.865Z,17.00
2022-09-09T08:21:12.870Z,17.06
2022-09-09T08:23:39.539Z,17.10
2022-09-09T08:26:06.900Z,17.12
2022-09-09T08:28:33.171Z,17.12
2022-09-09T08:31:06.069Z,17.14
2022-09-09T08:33:33.726Z,17.12
2022-09-09T08:36:00.014Z,17.08
2022-09-09T08:38:26.272Z,17.09
2022-09-09T08:40:54.317Z,17.14
2022-09-09T08:43:22.032Z,17.18
2022-09-09T08:45:51.312Z,17.24
2022-09-09T08:48:25.254Z,17.30
2022-09-09T08:50:53.109Z,17.36
2022-09-09T08:53:21.205Z,17.36
2022-09-09T08:55:48.638Z,17.34
2022-09-09T08:58:16.502Z,17.30
2022-09-09T09:00:52.838Z,17.29
2022-09-09T09:03:23.569Z,17.29
2022-09-09T09:05:56.187Z,17.30
2022-09-09T09:08:28.115Z,17.36
2022-09-09T09:10:55.486Z,17.39
2022-09-09T09:13:27.611Z,17.36
2022-09-09T09:15:56.454Z,17.38
2022-09-09T09:18:22.736Z,17.35
2022-09-09T09:20:51.728Z,17.33
2022-09-09T09:23:21.700Z,17.32
2022-09-09T09:25:49.310Z,17.36
2022-09-09T09:28:17.184Z,17.44
2022-09-09T09:30:45.089Z,17.55
2022-09-09T09:33:15.382Z,17.57
2022-09-09T09:35:43.271Z,17.58
2022-09-09T09:41:04.459Z,17.53
2022-09-09T09:43:31.702Z,17.52
2022-09-09T09:46:16.872Z,17.53
2022-09-09T09:48:44.397Z,17.51
2022-09-09T09:51:11.890Z,17.53
2022-09-09T09:53:39.071Z,17.54
2022-09-09T09:56:08.829Z,17.55
2022-09-09T09:58:50.383Z,17.61
2022-09-09T10:01:21.404Z,17.68
2022-09-09T10:03:51.562Z,17.76
2022-09-09T10:06:17.839Z,17.84
2022-09-09T10:08:45.659Z,17.96
2022-09-09T10:11:27.571Z,18.06
2022-09-09T10:13:58.188Z,18.12
2022-09-09T10:16:28.858Z,18.09
2022-09-09T10:18:59.654Z,18.04
2022-09-09T10:21:33.481Z,17.99
2022-09-09T10:24:20.083Z,17.90
2022-09-09T10:26:51.303Z,17.90
2022-09-09T10:29:30.411Z,17.88
2022-09-09T10:32:03.455Z,17.84
2022-09-09T10:34:41.363Z,17.82
2022-09-09T10:37:16.551Z,17.82
2022-09-09T10:39:43.311Z,17.76
2022-09-09T10:42:13.372Z,17.68
2022-09-09T10:44:49.418Z,17.60
2022-09-09T10:47:29.791Z,17.48
2022-09-09T10:50:07.998Z,17.48
2022-09-09T10:52:39.509Z,17.48
2022-09-09T10:55:10.992Z,17.44
2022-09-09T10:57:41.390Z,17.36
2022-09-09T11:00:15.546Z,17.24
2022-09-09T11:02:42.082Z,17.10
2022-09-09T11:05:13.903Z,16.93
2022-09-09T11:07:41.644Z,16.83
2022-09-09T11:10:17.357Z,16.74
2022-09-09T11:12:47.315Z,16.66
2022-09-09T11:15:17.924Z,16.62
2022-09-09T11:17:47.034Z,16.64
2022-09-09T11:20:14.211Z,16.66
2022-09-09T11:22:43.366Z,16.65
2022-09-09T11:25:15.207Z,16.63
2022-09-09T11:27:45.542Z,16.62
2022-09-09T11:30:44.128Z,16.61
2022-09-09T11:33:20.017Z,16.58
2022-09-09T11:35:55.461Z,16.58
2022-09-09T11:38:25.915Z,16.63
2022-09-09T11:40:55.915Z,16.68
2022-09-09T11:43:24.766Z,16.73
2022-09-09T11:45:58.669Z,16.84
2022-09-09T11:48:29.405Z,17.05
2022-09-09T11:50:59.771Z,17.36
2022-09-09T11:53:26.045Z,17.63
2022-09-09T11:56:06.027Z,17.81
2022-09-09T11:58:36.011Z,17.96
2022-09-09T12:01:13.491Z,17.97
2022-09-09T12:03:42.520Z,17.93
2022-09-09T12:06:18.043Z,17.95
2022-09-09T12:08:45.931Z,18.01
2022-09-09T12:11:12.202Z,18.03
2022-09-09T12:13:38.487Z,18.10
2022-09-09T12:16:06.185Z,18.15
2022-09-09T12:18:33.895Z,18.28
2022-09-09T12:21:04.786Z,18.36
2022-09-09T12:23:34.174Z,18.47
2022-09-09T12:26:18.145Z,18.55
2022-09-09T12:28:53.858Z,18.76
2022-09-09T12:31:24.678Z,18.84
2022-09-09T12:33:51.075Z,18.92
2022-09-09T12:36:19.635Z,19.07
2022-09-09T12:38:46.440Z,19.21
2022-09-09T12:41:22.637Z,19.26
2022-09-09T12:43:49.223Z,19.35
2022-09-09T12:46:22.201Z,19.35
2022-09-09T12:48:49.859Z,19.32
2022-09-09T12:51:19.335Z,19.27
2022-09-09T12:53:46.090Z,19.16
2022-09-09T12:56:19.467Z,19.12
2022-09-09T12:58:47.665Z,19.20
2022-09-09T13:01:21.711Z,19.28
2022-09-09T13:03:48.101Z,19.37
2022-09-09T13:06:19.827Z,19.52
2022-09-09T13:08:46.114Z,19.65
2022-09-09T13:11:14.724Z,19.77
2022-09-09T13:13:41.897Z,19.79
2022-09-09T13:16:20.526Z,19.74
2022-09-09T13:18:46.823Z,19.86
2022-09-09T13:21:13.114Z,19.92
2022-09-09T13:23:40.796Z,19.92
2022-09-09T13:26:20.491Z,19.88
2022-09-09T13:28:46.836Z,19.84
2022-09-09T13:31:21.215Z,19.83
2022-09-09T13:33:47.474Z,19.74
2022-09-09T13:36:14.396Z,19.60
2022-09-09T13:38:54.362Z,19.57
2022-09-09T13:41:22.015Z,19.64
2022-09-09T13:43:48.950Z,19.65
2022-09-09T13:46:31.075Z,19.60
2022-09-09T13:48:57.642Z,19.53
2022-09-09T13:51:30.367Z,19.56
2022-09-09T13:53:57.971Z,19.67
2022-09-09T13:56:24.367Z,19.77
2022-09-09T13:58:50.651Z,19.79
2022-09-09T14:01:16.930Z,19.68
2022-09-09T14:03:43.238Z,19.69
2022-09-09T14:06:10.800Z,19.63
2022-09-09T14:08:37.490Z,19.68
2022-09-09T14:11:05.174Z,19.74
2022-09-09T14:13:31.465Z,19.80
2022-09-09T14:15:57.755Z,19.84
2022-09-09T14:18:24.092Z,19.89
2022-09-09T14:20:50.367Z,19.91
2022-09-09T14:23:16.756Z,19.92
2022-09-09T14:25:43.244Z,19.95
2022-09-09T14:28:14.307Z,19.96
2022-09-09T14:30:41.186Z,19.92
2022-09-09T14:33:08.059Z,19.87
2022-09-09T14:35:34.490Z,19.77
2022-09-09T14:38:00.754Z,19.76
2022-09-09T14:40:27.225Z,19.79
2022-09-09T14:42:53.732Z,19.79
2022-09-09T14:45:21.323Z,19.77
2022-09-09T14:47:47.602Z,19.73
2022-09-09T14:50:13.963Z,19.68
2022-09-09T14:52:40.237Z,19.68
2022-09-09T14:55:07.273Z,19.60
2022-09-09T14:57:33.543Z,19.55
2022-09-09T14:59:59.787Z,19.57
2022-09-09T15:02:27.439Z,19.66
2022-09-09T15:04:53.744Z,19.84
2022-09-09T15:07:20.014Z,19.97
2022-09-09T15:09:46.307Z,20.03
2022-09-09T15:12:12.569Z,20.01
2022-09-09T15:14:38.842Z,19.98
2022-09-09T15:17:05.099Z,19.96
2022-09-09T15:19:32.714Z,19.93
2022-09-09T15:21:58.991Z,19.84
2022-09-09T15:24:25.281Z,19.75
2022-09-09T15:26:51.543Z,19.65
2022-09-09T15:29:17.807Z,19.56
2022-09-09T15:31:44.071Z,19.46
2022-09-09T15:34:10.352Z,19.38
2022-09-09T15:36:38.398Z,19.31
2022-09-09T15:39:05.852Z,19.28
2022-09-09T15:41:32.329Z,19.26
2022-09-09T15:43:58.967Z,19.23
2022-09-09T15:46:27.171Z,19.25
2022-09-09T15:48:54.739Z,19.29
2022-09-09T15:51:41.315Z,19.30
2022-09-09T15:54:09.371Z,19.29
2022-09-09T15:56:35.666Z,19.29
2022-09-09T15:59:02.506Z,19.25
2022-09-09T16:01:29.030Z,19.26
2022-09-09T16:03:55.386Z,19.28
2022-09-09T16:06:22.918Z,19.31
2022-09-09T16:08:49.962Z,19.36
2022-09-09T16:11:18.270Z,19.39
2022-09-09T16:13:50.419Z,19.42
2022-09-09T16:16:18.577Z,19.41
2022-09-09T16:18:46.274Z,19.40
2022-09-09T16:21:15.190Z,19.34
2022-09-09T16:23:41.574Z,19.28
2022-09-09T16:26:09.298Z,19.22
2022-09-09T16:28:36.896Z,19.17
2022-09-09T16:31:04.866Z,19.11
2022-09-09T16:33:31.584Z,19.03
2022-09-09T16:35:58.023Z,18.99
2022-09-09T16:38:24.335Z,18.94
2022-09-09T16:40:50.615Z,18.91
2022-09-09T16:43:16.967Z,18.88
2022-09-09T16:45:45.538Z,18.83
2022-09-09T16:48:11.838Z,18.80
2022-09-09T16:50:38.476Z,18.75
2022-09-09T16:53:04.747Z,18.74
2022-09-09T16:55:31.031Z,18.72
2022-09-09T16:57:57.302Z,18.70
2022-09-09T17:00:23.559Z,18.68
2022-09-09T17:02:51.210Z,18.67
2022-09-09T17:05:17.482Z,18.64
2022-09-09T17:07:43.751Z,18.59
2022-09-09T17:10:10.005Z,18.49
2022-09-09T17:12:38.760Z,18.40
2022-09-09T17:15:08.483Z,18.25
2022-09-09T17:17:34.726Z,18.13
2022-09-09T17:20:02.616Z,18.02
2022-09-09T17:22:28.907Z,17.93
2022-09-09T17:24:55.179Z,17.85
2022-09-09T17:27:21.507Z,17.82
2022-09-09T17:29:47.905Z,17.67
2022-09-09T17:32:14.211Z,17.52
2022-09-09T17:34:40.513Z,17.43
2022-09-09T17:37:08.105Z,17.38
2022-09-09T17:39:34.510Z,17.34
2022-09-09T17:42:00.881Z,17.25
2022-09-09T17:44:27.170Z,17.17
2022-09-09T17:46:53.452Z,17.10
2022-09-09T17:49:19.724Z,17.05
2022-09-09T17:51:45.997Z,17.00
2022-09-09T17:54:14.892Z,16.97
2022-09-09T17:56:41.607Z,16.92
2022-09-09T17:59:08.843Z,16.86
2022-09-09T18:01:36.013Z,16.84
2022-09-09T18:04:03.333Z,16.77
2022-09-09T18:06:32.074Z,16.75
2022-09-09T18:08:59.115Z,16.70
2022-09-09T18:11:27.582Z,16.68
2022-09-09T18:13:55.631Z,16.65
2022-09-09T18:16:22.553Z,16.61
2022-09-09T18:18:49.323Z,16.59
2022-09-09T18:21:15.667Z,16.59
2022-09-09T18:23:42.449Z,16.54
2022-09-09T18:26:09.069Z,16.49
2022-09-09T18:28:36.749Z,16.47
2022-09-09T18:31:04.938Z,16.44
2022-09-09T18:33:31.303Z,16.40
2022-09-09T18:35:57.555Z,16.36
2022-09-09T18:38:23.867Z,16.33
2022-09-09T18:40:50.142Z,16.30
2022-09-09T18:43:16.428Z,16.29
2022-09-09T18:45:44.060Z,16.25
2022-09-09T18:48:10.314Z,16.23
2022-09-09T18:50:36.575Z,16.22
2022-09-09T18:53:02.861Z,16.21
2022-09-09T18:55:29.125Z,16.20
2022-09-09T18:57:55.422Z,16.21
2022-09-09T19:00:21.691Z,16.21
2022-09-09T19:02:49.959Z,16.20
2022-09-09T19:05:16.352Z,16.17
2022-09-09T19:07:42.655Z,16.16
2022-09-09T19:10:09.074Z,16.16
2022-09-09T19:12:35.364Z,16.12
2022-09-09T19:15:01.664Z,16.12
2022-09-09T19:17:27.988Z,16.12
2022-09-09T19:19:55.576Z,16.10
2022-09-09T19:22:21.840Z,16.07
2022-09-09T19:24:48.104Z,16.06
2022-09-09T19:27:14.387Z,16.04
2022-09-09T19:29:40.730Z,16.02
2022-09-09T19:32:49.424Z,16.02
2022-09-09T19:34:53.399Z,16.00
2022-09-09T19:37:20.996Z,16.00
2022-09-09T19:39:47.558Z,15.97
2022-09-09T19:42:13.903Z,15.97
2022-09-09T19:44:40.158Z,15.96
2022-09-09T19:47:06.434Z,15.94
2022-09-09T19:49:32.683Z,15.92
2022-09-09T19:51:58.963Z,15.92
2022-09-09T19:54:26.818Z,15.90
2022-09-09T19:56:53.115Z,15.87
2022-09-09T19:59:19.463Z,15.87
2022-09-09T20:01:45.888Z,15.87
2022-09-09T20:04:12.865Z,15.88
2022-09-09T20:06:40.043Z,15.90
2022-09-09T20:09:07.058Z,15.92
2022-09-09T20:11:35.019Z,15.95
2022-09-09T20:14:01.542Z,15.94
2022-09-09T20:16:29.262Z,15.96
2022-09-09T20:18:56.244Z,15.97
2022-09-09T20:21:23.698Z,15.98
2022-09-09T20:23:50.430Z,15.99
2022-09-09T20:26:18.079Z,15.99
2022-09-09T20:28:45.808Z,16.00
2022-09-09T20:31:13.560Z,15.99
2022-09-09T20:33:40.446Z,16.00
2022-09-09T20:36:10.159Z,16.00
2022-09-09T20:38:36.593Z,16.02
2022-09-09T20:41:03.178Z,16.02
2022-09-09T20:43:29.511Z,16.00
2022-09-09T20:46:01.090Z,16.00
2022-09-09T20:48:27.378Z,16.00
2022-09-09T20:50:53.642Z,15.99
2022-09-09T20:53:19.903Z,15.98
2022-09-09T20:55:46.190Z,15.97
2022-09-09T20:58:12.434Z,15.97
2022-09-09T21:00:38.675Z,15.95
2022-09-09T21:03:06.286Z,15.95
2022-09-09T21:05:32.563Z,15.95
2022-09-09T21:07:58.847Z,15.93
2022-09-09T21:10:25.099Z,15.96
2022-09-09T21:12:51.366Z,15.95
2022-09-09T21:15:17.647Z,15.96
2022-09-09T21:17:43.899Z,15.97
2022-09-09T21:20:11.531Z,15.96
2022-09-09T21:22:37.808Z,15.95
2022-09-09T21:25:04.472Z,15.94
2022-09-09T21:27:30.791Z,15.93
2022-09-09T21:29:58.795Z,15.92
2022-09-09T21:32:25.080Z,15.90
2022-09-09T21:34:51.336Z,15.87
2022-09-09T21:37:18.964Z,15.85
2022-09-09T21:39:45.243Z,15.85
2022-09-09T21:42:11.519Z,15.86
2022-09-09T21:44:37.781Z,15.85
2022-09-09T21:47:04.280Z,15.86
2022-09-09T21:49:30.566Z,15.84
2022-09-09T21:51:56.847Z,15.81
2022-09-09T21:54:24.473Z,15.80
2022-09-09T21:56:50.742Z,15.78
2022-09-09T21:59:17.179Z,15.77
2022-09-09T22:01:43.568Z,15.76
2022-09-09T22:04:09.886Z,15.75
2022-09-09T22:06:36.168Z,15.75
2022-09-09T22:09:02.434Z,15.74
2022-09-09T22:11:30.111Z,15.73
2022-09-09T22:13:56.690Z,15.71
2022-09-09T22:16:23.068Z,15.69
2022-09-09T22:18:52.747Z,15.68
2022-09-09T22:21:19.454Z,15.67
2022-09-09T22:23:50.234Z,15.64
2022-09-09T22:26:16.498Z,15.62
2022-09-09T22:28:44.116Z,15.61
2022-09-09T22:31:10.417Z,15.60
2022-09-09T22:33:36.705Z,15.58
2022-09-09T22:36:03.482Z,15.55
2022-09-09T22:38:29.756Z,15.51
2022-09-09T22:40:56.017Z,15.50
2022-09-09T22:43:22.438Z,15.46
2022-09-09T22:45:50.519Z,15.45
2022-09-09T22:48:16.773Z,15.43
2022-09-09T22:50:43.068Z,15.42
2022-09-09T22:53:10.470Z,15.41
2022-09-09T22:55:36.739Z,15.37
2022-09-09T22:58:03.019Z,15.32
2022-09-09T23:00:29.347Z,15.27
2022-09-09T23:02:56.970Z,15.23
2022-09-09T23:05:23.218Z,15.19
2022-09-09T23:07:49.767Z,15.15
2022-09-09T23:10:16.114Z,15.12
2022-09-09T23:12:42.403Z,15.07
2022-09-09T23:15:09.198Z,15.04
2022-09-09T23:17:35.482Z,15.01
2022-09-09T23:20:03.724Z,14.99
2022-09-09T23:22:30.132Z,14.96
2022-09-09T23:24:56.447Z,14.93
2022-09-09T23:27:22.707Z,14.90
2022-09-09T23:29:48.946Z,14.89
2022-09-09T23:32:15.319Z,14.87
2022-09-09T23:34:41.663Z,14.82
2022-09-09T23:37:09.251Z,14.81
2022-09-09T23:39:35.571Z,14.83
2022-09-09T23:42:05.756Z,14.83
2022-09-09T23:44:32.578Z,14.82
2022-09-09T23:46:58.832Z,14.84
2022-09-09T23:49:25.082Z,14.84
2022-09-09T23:51:51.351Z,14.84
2022-09-09T23:54:18.962Z,14.87
2022-09-09T23:56:45.223Z,14.89
2022-09-09T23:59:11.947Z,14.91
